CheckWX is a tool to help pilots better visualize weather data.  It is not intended as a substitute for an official pre-flight weather briefing.

06:29:10 UTC

KJYO METAR
Leesburg Executive Airport
Leesburg, Virginia, USA
Current

34 mins ago

KJYO 050555Z AUTO 21003KT 10SM CLR 06/05 A3008 RMK AO2
Observed
Apr-5 @ 05:55 UTC
Wind
  • 210° at 3 KTS
Visibility
Flight Rules
VFR
Cloud Levels
  • Clear skies
Temperature
C / 43°F
Dewpoint
C / 41°F
Humidity
93%
Altimeter
30.08" Hg
Pressure
1018.62 hPa
Previous

54 mins ago

KJYO 050535Z AUTO 22003KT 10SM CLR 06/05 A3008 RMK AO2
Observed
Apr-5 @ 05:35 UTC
Wind
  • 220° at 3 KTS
Visibility
Flight Rules
VFR
Cloud Levels
  • Clear skies
Temperature
C / 43°F
Dewpoint
C / 41°F
Humidity
93%
Altimeter
30.08" Hg
Pressure
1018.62 hPa
Previous

1 hour ago

KJYO 050515Z AUTO 22003KT 10SM CLR 06/05 A3008 RMK AO2
Observed
Apr-5 @ 05:15 UTC
Wind
  • 220° at 3 KTS
Visibility
Flight Rules
VFR
Cloud Levels
  • Clear skies
Temperature
C / 43°F
Dewpoint
C / 41°F
Humidity
93%
Altimeter
30.08" Hg
Pressure
1018.62 hPa